This is the latest recevied weather packets stored in our database for station/object DL9OAC-5. If no packets are shown the sender has not sent any weather packets the latest 10 day(s).
| Time | Temp. | Humidity | Pressure | Rain* | Wind** | Luminosity | Snow |
|---|---|---|---|---|---|---|---|
| 1777923448 | 36.11° C | 26% | 1010.2 hPa | - | - | - | - |
| 1777923148 | 33.33° C | 29% | 1010.1 hPa | - | - | - | - |
| 1777904828 | 35° C | 21% | 1010.5 hPa | - | - | - | - |
| 1777904528 | 36.67° C | 21% | 1010.5 hPa | - | - | - | - |
| 1777904228 | 36.67° C | 23% | 1010.6 hPa | - | - | - | - |
| 1777903327 | 37.22° C | 23% | 1010.7 hPa | - | - | - | - |
| 1777903027 | 37.22° C | 23% | 1010.6 hPa | - | - | - | - |
| 1777902727 | 37.22° C | 23% | 1010.6 hPa | - | - | - | - |
| 1777902427 | 36.67° C | 23% | 1010.6 hPa | - | - | - | - |
| 1777902127 | 36.67° C | 24% | 1010.6 hPa | - | - | - | - |
| 1777901827 | 36.67° C | 24% | 1010.7 hPa | - | - | - | - |
| 1777901526 | 36.67° C | 23% | 1010.7 hPa | - | - | - | - |
| 1777901227 | 37.22° C | 23% | 1010.6 hPa | - | - | - | - |
| 1777900312 | 38.89° C | 24% | 1010.3 hPa | - | - | - | - |
| 1777895499 | 30.56° C | 29% | 1009.3 hPa | - | - | - | - |
| 1777895199 | 30° C | 29% | 1010.5 hPa | - | - | - | - |
| 1777894593 | 28.89° C | 29% | 1010.7 hPa | - | - | - | - |
| 1777893980 | 29.44° C | 32% | 1010.4 hPa | - | - | - | - |
| 1777893680 | 29.44° C | 32% | 1010.4 hPa | - | - | - | - |
| 1777893380 | 30° C | 31% | 1010.5 hPa | - | - | - | - |
| 1777893080 | 31.11° C | 31% | 1010.5 hPa | - | - | - | - |
| 1777892479 | 30.56° C | 30% | 1010.3 hPa | - | - | - | - |
| 1777891579 | 30.56° C | 31% | 1010.5 hPa | - | - | - | - |
| 1777890979 | 30.56° C | 31% | 1010.5 hPa | - | - | - | - |
| 1777890379 | 30.56° C | 31% | 1010.6 hPa | - | - | - | - |
* Rain since midnight (hover to see other rain measurements)
** Current wind speed in m/s (hover to see current wind gust speed)